KLOT/LOT METAR and TAF weather

Enter ICAO airport designator
Station Type Date Time Source
KLOT METAR 2021/08/05 04:35 UTC NOAA

KLOT 050435Z AUTO 00000KT 10SM CLR 20/16 A3012 RMK AO2 T02020162


Station Type Date Time Source
KLOT Decoded METAR 2021/08/05 04:35 UTC NOAA

Chicago/Romeoville, Lewis University Airport, IL, United States (KLOT) 41-36-30N 088-05-39W
Aug 05, 2021 - 12:35 AM EDT / 2021.08.05 0435 UTC
Wind: Calm:0
Visibility: 10 mile(s):0
Sky conditions: clear
Temperature: 68.4 F (20.2 C)
Dew Point: 61.2 F (16.2 C)
Relative Humidity: 77%
Pressure (altimeter): 30.12 in. Hg (1019 hPa)
ob: KLOT 050435Z AUTO 00000KT 10SM CLR 20/16 A3012 RMK AO2 T02020162
cycle: 4

Station Type Date Time Source
KLOT TAF UTC NOAA

Error!

Example: see airport list